Time;durP1;ratioP1;P1;durP2;ratioP2;P2;SDS_P1;SDS_P2;PMS_P1;PMS_P2;Temp;Humidity;BMP_temperature;BMP_pressure;BME280_temperature;BME280_humidity;BME280_pressure;Samples;Min_cycle;Max_cycle;Signal;HPM_P1;HPM_P2
2023/07/17 04:22:33;;;;;;;3.00;2.15;;;;;;;15.72;100.00;100480.44;5089331;28;20381;-65
2023/07/17 04:25:01;;;;;;;5.63;2.35;;;;;;;15.77;100.00;100486.00;5088318;28;20461;-65
2023/07/17 04:27:28;;;;;;;3.83;2.30;;;;;;;15.80;100.00;100482.94;5088254;28;20040;-65
2023/07/17 04:29:53;;;;;;;3.72;2.30;;;;;;;15.82;100.00;100488.09;5087832;28;20404;-65
2023/07/17 04:32:19;;;;;;;4.25;2.67;;;;;;;15.84;100.00;100494.91;5087994;28;20040;-65
2023/07/17 04:34:45;;;;;;;3.97;2.25;;;;;;;15.89;100.00;100497.81;5089744;28;20074;-65
2023/07/17 04:37:11;;;;;;;3.45;2.10;;;;;;;15.95;100.00;100497.00;5092730;28;20097;-65
2023/07/17 04:39:36;;;;;;;3.90;2.28;;;;;;;16.02;100.00;100507.78;5070425;28;20093;-65
2023/07/17 04:42:04;;;;;;;3.22;2.10;;;;;;;16.06;100.00;100513.59;5087851;28;20488;-65
2023/07/17 04:44:29;;;;;;;3.50;2.75;;;;;;;16.14;100.00;100505.34;5087704;28;20097;-65
2023/07/17 04:46:56;;;;;;;9.23;6.55;;;;;;;16.22;100.00;100513.19;5087682;28;20040;-68
2023/07/17 04:49:21;;;;;;;7.50;5.10;;;;;;;16.28;100.00;100512.38;5087519;28;20036;-64
2023/07/17 04:51:47;;;;;;;14.07;7.50;;;;;;;16.34;100.00;100524.19;5087701;28;20485;-64
2023/07/17 04:54:13;;;;;;;9.27;6.45;;;;;;;16.39;100.00;100522.53;5087920;28;20045;-64
2023/07/17 04:56:39;;;;;;;11.30;6.68;;;;;;;16.46;100.00;100526.06;5087623;28;20408;-63
2023/07/17 04:59:09;;;;;;;5.90;3.47;;;;;;;16.49;100.00;100530.19;5087232;28;20086;-64
2023/07/17 05:01:34;;;;;;;4.65;3.63;;;;;;;16.57;100.00;100521.13;5087711;28;20036;-63
2023/07/17 05:04:00;;;;;;;3.92;2.70;;;;;;;16.55;100.00;100529.38;5070807;28;20032;-64
2023/07/17 05:06:26;;;;;;;4.75;3.13;;;;;;;16.62;100.00;100526.69;5087418;28;20526;-64
2023/07/17 05:08:52;;;;;;;4.93;2.60;;;;;;;16.65;100.00;100540.56;5087053;28;20037;-64
2023/07/17 05:11:18;;;;;;;7.28;3.85;;;;;;;16.71;100.00;100534.41;5087374;28;20043;-64
2023/07/17 05:13:46;;;;;;;2.67;1.98;;;;;;;16.71;100.00;100541.66;5087010;28;20040;-64
2023/07/17 05:16:12;;;;;;;3.50;2.15;;;;;;;16.79;100.00;100546.81;5087290;28;20032;-62
2023/07/17 05:18:39;;;;;;;3.00;1.57;;;;;;;16.85;100.00;100543.31;5087107;28;20036;-64
2023/07/17 05:21:05;;;;;;;3.10;1.73;;;;;;;16.91;100.00;100544.34;5087112;28;20294;-64
2023/07/17 05:23:31;;;;;;;2.65;2.15;;;;;;;16.97;100.00;100543.50;5087196;28;20028;-64
2023/07/17 05:25:58;;;;;;;5.82;2.30;;;;;;;17.05;100.00;100549.50;5087058;28;20082;-63
2023/07/17 05:28:24;;;;;;;4.38;2.10;;;;;;;17.16;100.00;100548.06;5086863;28;20040;-64
2023/07/17 05:30:55;;;;;;;3.13;2.17;;;;;;;17.18;100.00;100548.66;5088944;28;20040;-64
2023/07/17 05:33:21;;;;;;;4.25;2.13;;;;;;;17.24;100.00;100545.13;5077411;28;20040;-64
2023/07/17 05:35:48;;;;;;;3.42;2.00;;;;;;;17.33;100.00;100551.13;5074231;28;20028;-64
2023/07/17 05:38:13;;;;;;;3.95;1.85;;;;;;;17.41;100.00;100548.22;5053735;28;20095;-64
2023/07/17 05:40:40;;;;;;;3.03;2.10;;;;;;;17.49;100.00;100556.06;5053806;28;20025;-65
2023/07/17 05:43:08;;;;;;;4.00;1.70;;;;;;;17.58;100.00;100557.47;5053595;28;20390;-64
2023/07/17 05:45:34;;;;;;;2.77;1.67;;;;;;;17.67;100.00;100549.16;5053309;28;20033;-64
2023/07/17 05:47:59;;;;;;;4.00;2.17;;;;;;;17.73;100.00;100559.13;5053200;28;20041;-64
2023/07/17 05:50:25;;;;;;;2.72;1.88;;;;;;;17.83;100.00;100560.34;5054065;28;20560;-64
2023/07/17 05:52:51;;;;;;;2.40;1.63;;;;;;;17.94;100.00;100561.56;5054489;28;20122;-64
2023/07/17 05:55:16;;;;;;;4.03;1.85;;;;;;;18.05;100.00;100560.84;5055913;28;20037;-64
2023/07/17 05:57:42;;;;;;;3.33;1.90;;;;;;;18.17;100.00;100561.00;5074307;28;20037;-64
2023/07/17 06:00:12;;;;;;;3.03;2.05;;;;;;;18.34;100.00;100564.03;5072744;28;20484;-63
2023/07/17 06:02:38;;;;;;;4.35;1.95;;;;;;;18.42;100.00;100558.38;5074259;28;20492;-63
2023/07/17 06:05:04;;;;;;;2.38;1.75;;;;;;;18.55;99.82;100560.19;5074211;28;20052;-64
2023/07/17 06:07:30;;;;;;;2.45;1.73;;;;;;;18.58;99.41;100560.59;5074083;28;20032;-64
2023/07/17 06:09:56;;;;;;;3.10;1.90;;;;;;;18.70;97.01;100568.81;5073781;28;20041;-64
2023/07/17 06:12:22;;;;;;;2.80;2.15;;;;;;;18.79;93.42;100564.00;5074003;28;20036;-64
2023/07/17 06:14:47;;;;;;;4.68;2.22;;;;;;;18.85;93.74;100569.34;5073954;28;20102;-64
2023/07/17 06:17:13;;;;;;;3.70;2.00;;;;;;;18.89;91.42;100565.13;5074061;28;20444;-63
2023/07/17 06:19:38;;;;;;;3.00;2.05;;;;;;;19.02;89.62;100582.25;5073504;28;20040;-63
2023/07/17 06:22:04;;;;;;;4.72;2.10;;;;;;;19.07;91.06;100577.03;5072549;28;20048;-63
2023/07/17 06:24:29;;;;;;;4.82;2.50;;;;;;;19.18;91.33;100587.13;5073745;28;20122;-63
2023/07/17 06:26:55;;;;;;;3.85;1.95;;;;;;;19.17;92.02;100571.94;5073669;28;20056;-63
2023/07/17 06:29:20;;;;;;;4.82;2.28;;;;;;;19.28;89.77;100584.72;5073386;28;20409;-64
2023/07/17 06:31:46;;;;;;;5.15;2.60;;;;;;;19.31;90.50;100575.38;5073524;28;20485;-64
2023/07/17 06:34:11;;;;;;;4.80;1.90;;;;;;;19.32;90.26;100579.72;5073801;28;20075;-64
2023/07/17 06:36:37;;;;;;;3.47;1.73;;;;;;;19.37;90.83;100577.19;5073490;28;20036;-63
2023/07/17 06:39:02;;;;;;;5.03;2.10;;;;;;;19.42;89.88;100575.44;5073167;28;20456;-64
2023/07/17 06:41:27;;;;;;;2.72;1.80;;;;;;;19.47;90.48;100572.91;5073521;28;20032;-64
2023/07/17 06:43:55;;;;;;;5.53;2.55;;;;;;;19.51;90.21;100578.69;5071234;28;20098;-64
2023/07/17 06:46:20;;;;;;;3.85;2.15;;;;;;;19.53;89.94;100572.00;5073330;28;20040;-64
2023/07/17 06:48:45;;;;;;;4.25;2.50;;;;;;;19.64;88.32;100584.00;5071715;28;20127;-64
2023/07/17 06:51:11;;;;;;;4.40;2.22;;;;;;;19.86;87.30;100580.84;5073156;28;20076;-64
2023/07/17 06:53:36;;;;;;;4.25;1.92;;;;;;;19.92;86.67;100577.22;5073144;28;20032;-64
2023/07/17 06:56:03;;;;;;;3.88;1.80;;;;;;;20.13;85.16;100573.22;5063551;28;20028;-64
2023/07/17 06:58:29;;;;;;;2.45;1.75;;;;;;;20.19;83.87;100580.41;5058307;28;20037;-64
2023/07/17 07:00:57;;;;;;;3.47;2.03;;;;;;;20.38;83.13;100578.50;5061837;28;20025;-64
2023/07/17 07:03:24;;;;;;;4.32;2.35;;;;;;;20.44;83.55;100583.00;5062715;28;20523;-64
2023/07/17 07:06:00;;;;;;;2.88;2.10;;;;;;;20.67;81.10;100593.94;5059759;28;20061;-64
2023/07/17 07:08:29;;;;;;;5.88;1.90;;;;;;;20.80;77.94;100599.16;5059180;28;20037;-64
2023/07/17 07:10:56;;;;;;;3.95;2.75;;;;;;;20.95;74.12;100601.41;5061475;28;20501;-64
2023/07/17 07:13:22;;;;;;;4.80;2.08;;;;;;;21.08;72.89;100594.94;5062532;28;20110;-64
2023/07/17 07:15:48;;;;;;;4.13;2.10;;;;;;;21.14;72.10;100602.16;5060585;28;20056;-64
2023/07/17 07:18:14;;;;;;;4.90;1.80;;;;;;;21.16;72.91;100601.91;5060457;28;20111;-64
2023/07/17 07:20:40;;;;;;;3.53;1.90;;;;;;;21.27;73.29;100603.81;5062039;28;20435;-63
2023/07/17 07:23:05;;;;;;;2.63;1.98;;;;;;;21.38;73.78;100600.28;5060292;28;20449;-63
2023/07/17 07:25:31;;;;;;;5.45;1.92;;;;;;;21.46;69.50;100602.66;5061984;28;20029;-63
2023/07/17 07:27:56;;;;;;;3.65;2.20;;;;;;;21.62;71.20;100601.94;5061729;28;20402;-63
2023/07/17 07:30:21;;;;;;;5.63;1.98;;;;;;;21.73;68.79;100608.41;5059949;28;20048;-63
2023/07/17 07:32:47;;;;;;;4.15;2.22;;;;;;;21.91;67.30;100615.56;5065976;28;20068;-64
2023/07/17 07:35:13;;;;;;;3.15;2.10;;;;;;;21.89;66.90;100618.50;5072212;28;20044;-64
2023/07/17 07:37:39;;;;;;;2.92;1.92;;;;;;;21.98;69.97;100615.44;5072482;28;20036;-64
2023/07/17 07:40:06;;;;;;;2.60;1.92;;;;;;;22.10;67.95;100618.94;5072095;28;20048;-64
2023/07/17 07:42:32;;;;;;;3.95;2.53;;;;;;;22.01;65.14;100612.25;5072330;28;20115;-63
2023/07/17 07:44:58;;;;;;;2.83;2.05;;;;;;;22.21;63.76;100615.38;5072360;28;20128;-64
2023/07/17 07:47:23;;;;;;;4.47;2.13;;;;;;;22.25;63.59;100600.28;5072237;28;20059;-64
2023/07/17 07:49:50;;;;;;;4.95;2.65;;;;;;;22.37;64.46;100611.09;5071961;28;20089;-64
2023/07/17 07:52:15;;;;;;;7.03;2.38;;;;;;;22.36;65.77;100612.97;5072201;28;20051;-64
2023/07/17 07:54:43;;;;;;;5.60;2.53;;;;;;;22.38;66.92;100621.72;5072311;28;20115;-64
2023/07/17 07:57:09;;;;;;;4.55;2.00;;;;;;;22.45;63.52;100621.56;5071056;28;20038;-64
2023/07/17 07:59:34;;;;;;;3.33;2.30;;;;;;;22.47;64.38;100614.81;5071910;28;20389;-64
2023/07/17 08:02:00;;;;;;;4.28;2.42;;;;;;;22.52;64.98;100627.66;5072147;28;20081;-63
2023/07/17 08:04:25;;;;;;;4.15;2.30;;;;;;;22.73;59.92;100629.69;5072070;28;20413;-64
2023/07/17 08:06:50;;;;;;;5.85;2.97;;;;;;;22.82;59.98;100624.69;5071990;28;20507;-64
2023/07/17 08:09:16;;;;;;;4.25;2.53;;;;;;;23.04;59.95;100632.16;5071709;28;20143;-64
2023/07/17 08:11:42;;;;;;;3.45;2.20;;;;;;;23.07;61.00;100634.34;5071862;28;20040;-64
2023/07/17 08:14:07;;;;;;;5.13;2.33;;;;;;;23.08;61.78;100641.44;5072016;28;20132;-63
2023/07/17 08:16:32;;;;;;;4.65;2.25;;;;;;;23.07;60.05;100637.06;5071813;28;20075;-63
2023/07/17 08:18:58;;;;;;;5.50;2.70;;;;;;;23.24;62.42;100636.03;5071652;28;20036;-63
2023/07/17 08:21:23;;;;;;;2.53;2.10;;;;;;;23.49;61.16;100634.78;5071822;28;20044;-63
2023/07/17 08:23:49;;;;;;;4.38;2.58;;;;;;;23.54;55.53;100635.69;5071886;28;20029;-63
2023/07/17 08:26:14;;;;;;;3.15;2.42;;;;;;;23.74;56.26;100639.78;5071730;28;20478;-62
2023/07/17 08:28:40;;;;;;;4.95;2.70;;;;;;;23.88;54.51;100634.81;5071661;28;20116;-63
2023/07/17 08:31:05;;;;;;;3.67;2.42;;;;;;;24.09;53.96;100631.25;5071773;28;20154;-64
2023/07/17 08:33:30;;;;;;;3.45;2.47;;;;;;;24.36;53.28;100651.22;5070657;28;20036;-63
2023/07/17 08:35:56;;;;;;;4.00;1.88;;;;;;;24.39;52.36;100646.34;5071674;28;20094;-63
2023/07/17 08:38:21;;;;;;;4.32;2.55;;;;;;;24.51;52.80;100634.22;5071508;28;20079;-63
2023/07/17 08:40:53;;;;;;;4.55;2.53;;;;;;;24.66;53.17;100636.31;5071686;28;20064;-64
2023/07/17 08:43:19;;;;;;;4.65;2.50;;;;;;;24.72;53.60;100637.19;5071724;28;20119;-64
2023/07/17 08:45:46;;;;;;;4.78;2.50;;;;;;;24.77;51.54;100638.03;5071646;28;20528;-63
2023/07/17 08:48:13;;;;;;;4.90;2.50;;;;;;;24.67;48.99;100632.50;5071562;28;20448;-63
2023/07/17 08:50:38;;;;;;;3.60;1.90;;;;;;;24.66;48.61;100643.66;5071325;28;20517;-63
2023/07/17 08:53:06;;;;;;;3.85;2.50;;;;;;;24.49;50.17;100641.84;5071682;28;20072;-64
2023/07/17 08:55:32;;;;;;;4.00;2.50;;;;;;;24.44;49.74;100639.03;5071524;28;20072;-64
2023/07/17 08:58:03;;;;;;;6.18;2.15;;;;;;;24.51;49.13;100645.13;5071574;28;20505;-64
2023/07/17 09:00:29;;;;;;;4.82;2.22;;;;;;;24.53;49.10;100631.25;5071428;28;20082;-64
2023/07/17 09:02:55;;;;;;;6.10;2.53;;;;;;;24.60;51.37;100637.31;5071468;28;20024;-64
2023/07/17 09:05:20;;;;;;;6.15;2.28;;;;;;;24.84;50.27;100626.91;5071478;28;20090;-64
2023/07/17 09:07:47;;;;;;;4.38;2.30;;;;;;;24.77;46.58;100626.31;5072683;28;20040;-64
2023/07/17 09:10:13;;;;;;;2.90;1.90;;;;;;;25.09;50.85;100627.19;5074950;28;20040;-64
2023/07/17 09:12:48;;;;;;;5.30;3.15;;;;;;;25.21;48.39;100627.00;5075038;28;20042;-63
2023/07/17 09:15:15;;;;;;;5.50;1.80;;;;;;;25.46;48.07;100620.91;5075029;28;20039;-62
2023/07/17 09:17:41;;;;;;;5.03;2.17;;;;;;;25.47;46.29;100625.28;5075124;28;20440;-63
2023/07/17 09:20:10;;;;;;;4.72;2.20;;;;;;;25.69;47.75;100627.84;5074593;28;20078;-63
2023/07/17 09:22:39;;;;;;;5.82;2.30;;;;;;;25.63;45.58;100629.75;5074995;28;20032;-63
2023/07/17 09:25:06;;;;;;;3.65;2.05;;;;;;;25.67;44.22;100636.31;5074789;28;20533;-62
2023/07/17 09:27:45;;;;;;;;;;;;;;;25.62;44.45;100632.72;5075537;28;20089;-62
2023/07/17 09:30:12;;;;;;;4.30;1.95;;;;;;;25.82;44.06;100637.50;5074661;28;19966;-62
2023/07/17 09:32:38;;;;;;;4.18;2.38;;;;;;;25.75;43.87;100626.00;5074803;28;20033;-63
2023/07/17 09:35:05;;;;;;;4.50;2.20;;;;;;;25.90;44.16;100631.56;5074771;28;20060;-62
2023/07/17 09:37:32;;;;;;;4.22;2.42;;;;;;;25.99;45.05;100632.69;5074788;28;20040;-62
2023/07/17 09:40:11;;;;;;;6.10;2.50;;;;;;;26.12;43.83;100624.00;5074303;28;20115;-63
2023/07/17 09:42:45;;;;;;;11.88;2.58;;;;;;;26.46;45.92;100626.34;5074731;28;20064;-63
2023/07/17 09:45:11;;;;;;;4.65;2.30;;;;;;;26.49;42.79;100620.34;5074539;28;20477;-63
2023/07/17 09:47:37;;;;;;;5.53;2.17;;;;;;;26.42;43.96;100617.88;5074599;28;20040;-63
2023/07/17 09:50:03;;;;;;;4.18;2.20;;;;;;;26.12;48.31;100620.47;5074212;28;20028;-63
2023/07/17 09:52:30;;;;;;;5.78;2.70;;;;;;;26.39;43.65;100617.53;5074410;28;20040;-64
2023/07/17 09:55:00;;;;;;;5.75;2.83;;;;;;;26.54;43.99;100619.53;5074498;28;20042;-63
2023/07/17 09:57:30;;;;;;;4.82;2.40;;;;;;;26.48;42.69;100625.00;5074411;28;20037;-63
2023/07/17 10:00:17;;;;;;;3.83;2.10;;;;;;;26.41;43.71;100624.44;5074130;28;20098;-63
2023/07/17 10:02:54;;;;;;;;;;;;;;;26.64;43.34;100622.28;5074866;28;20075;-63
2023/07/17 10:05:20;;;;;;;4.95;2.45;;;;;;;26.50;43.61;100624.72;5074028;28;19912;-63
2023/07/17 10:07:48;;;;;;;4.85;2.40;;;;;;;26.14;43.68;100621.00;5074097;28;20082;-63
2023/07/17 10:10:14;;;;;;;5.85;2.45;;;;;;;26.54;44.35;100624.97;5073814;28;20037;-63
2023/07/17 10:12:41;;;;;;;4.22;2.53;;;;;;;26.72;45.46;100616.28;5074053;28;20382;-63
2023/07/17 10:15:08;;;;;;;4.47;2.53;;;;;;;26.54;43.17;100624.97;5073983;28;20033;-63
2023/07/17 10:17:36;;;;;;;6.53;2.72;;;;;;;26.42;43.72;100615.16;5073998;28;20067;-62
2023/07/17 10:20:02;;;;;;;4.65;2.28;;;;;;;27.01;43.86;100611.13;5073536;28;20039;-63
2023/07/17 10:22:38;;;;;;;8.13;2.53;;;;;;;27.13;42.85;100608.97;5074134;28;20379;-63
2023/07/17 10:25:17;;;;;;;5.10;2.55;;;;;;;27.37;41.40;100608.38;5073820;28;20043;-63
2023/07/17 10:27:47;;;;;;;5.93;3.17;;;;;;;27.46;40.25;100602.06;5073840;28;20037;-63
2023/07/17 10:30:23;;;;;;;5.97;3.08;;;;;;;27.89;44.26;100609.91;5073318;28;20032;-63
2023/07/17 10:33:14;;;;;;;5.70;2.75;;;;;;;27.98;39.58;100600.03;5073718;28;20119;-64
2023/07/17 10:35:56;;;;;;;4.82;2.92;;;;;;;27.99;38.13;100598.94;5073451;28;20071;-63
2023/07/17 10:38:27;;;;;;;4.75;2.38;;;;;;;28.12;38.59;100601.06;5073213;28;20036;-64
2023/07/17 10:41:13;;;;;;;4.28;2.10;;;;;;;28.54;40.10;100602.47;5073444;28;20072;-63
2023/07/17 10:43:56;;;;;;;5.03;2.35;;;;;;;29.11;38.10;100595.50;5073466;28;20033;-64
2023/07/17 10:46:32;;;;;;;7.22;2.58;;;;;;;29.20;35.30;100594.56;5073268;28;20048;-64
2023/07/17 10:49:11;;;;;;;6.40;2.97;;;;;;;28.99;36.67;100595.06;5072992;28;20055;-64
2023/07/17 10:51:42;;;;;;;6.78;3.10;;;;;;;28.55;34.93;100595.91;5073185;28;20299;-64
2023/07/17 10:54:07;;;;;;;4.60;2.30;;;;;;;28.85;38.92;100592.94;5073207;28;20047;-64
2023/07/17 10:56:33;;;;;;;4.97;2.80;;;;;;;29.30;36.50;100592.84;5073064;28;20037;-64
2023/07/17 10:58:58;;;;;;;5.78;2.58;;;;;;;29.26;37.31;100584.38;5072714;28;20131;-63
2023/07/17 11:01:24;;;;;;;5.30;2.75;;;;;;;28.64;36.20;100580.50;5072995;28;20064;-63
2023/07/17 11:03:49;;;;;;;6.70;3.45;;;;;;;28.39;36.39;100586.97;5072990;28;20063;-64
2023/07/17 11:06:16;;;;;;;7.10;3.58;;;;;;;28.46;38.17;100581.16;5072800;28;20045;-63
2023/07/17 11:08:43;;;;;;;3.90;2.50;;;;;;;28.56;36.15;100570.13;5071243;28;20040;-64
2023/07/17 11:11:09;;;;;;;5.03;2.85;;;;;;;28.76;37.45;100575.47;5072717;28;20072;-63
2023/07/17 11:13:34;;;;;;;4.97;2.38;;;;;;;29.39;35.73;100578.19;5072819;28;20036;-64
2023/07/17 11:16:07;;;;;;;6.10;2.92;;;;;;;29.64;35.03;100568.09;5072603;28;20602;-63
2023/07/17 11:18:40;;;;;;;4.85;2.53;;;;;;;30.04;35.98;100574.16;5072425;28;20036;-63
2023/07/17 11:21:10;;;;;;;3.63;2.35;;;;;;;30.20;36.48;100570.97;5072583;28;20029;-63
2023/07/17 11:23:35;;;;;;;6.72;2.80;;;;;;;30.63;33.78;100561.78;5072546;28;20366;-64
2023/07/17 11:26:03;;;;;;;5.80;2.78;;;;;;;30.13;33.46;100564.22;5072573;28;20051;-64
2023/07/17 11:28:29;;;;;;;5.78;2.72;;;;;;;29.70;36.34;100577.91;5072125;28;20035;-64
2023/07/17 11:30:55;;;;;;;6.23;2.67;;;;;;;29.43;33.99;100567.47;5071906;28;20036;-63
2023/07/17 11:33:21;;;;;;;4.30;2.60;;;;;;;29.32;35.57;100572.25;5072463;28;20486;-64
2023/07/17 11:35:52;;;;;;;5.55;2.97;;;;;;;29.12;37.60;100572.44;5072365;28;20283;-63
2023/07/17 11:38:19;;;;;;;5.45;2.83;;;;;;;29.92;36.38;100580.09;5072164;28;20103;-63
2023/07/17 11:40:57;;;;;;;6.95;2.80;;;;;;;30.31;35.23;100566.13;5072339;28;20040;-63
2023/07/17 11:43:33;;;;;;;5.28;2.55;;;;;;;30.93;34.65;100564.06;5072378;28;20113;-63
2023/07/17 11:46:03;;;;;;;4.45;2.72;;;;;;;31.28;33.15;100551.63;5072250;28;20050;-63
2023/07/17 11:48:41;;;;;;;4.75;2.63;;;;;;;31.56;34.29;100562.66;5071912;28;20112;-63
2023/07/17 11:51:07;;;;;;;5.60;3.15;;;;;;;31.77;33.59;100569.41;5072185;28;20043;-63
2023/07/17 11:53:35;;;;;;;6.25;2.72;;;;;;;31.02;32.91;100559.50;5072270;28;20040;-64
2023/07/17 11:56:01;;;;;;;5.05;2.60;;;;;;;30.78;31.86;100559.66;5072065;28;20036;-64
2023/07/17 11:58:34;;;;;;;6.57;2.80;;;;;;;31.00;32.80;100558.19;5070804;28;20362;-65
2023/07/17 12:01:00;;;;;;;8.32;3.42;;;;;;;30.57;33.54;100563.00;5072134;28;20036;-63
2023/07/17 12:03:25;;;;;;;4.90;2.83;;;;;;;29.98;33.28;100554.19;5054190;28;20020;-64
2023/07/17 12:05:50;;;;;;;6.22;2.92;;;;;;;29.68;36.16;100547.19;5071913;28;20382;-64
2023/07/17 12:08:16;;;;;;;5.80;2.57;;;;;;;30.47;32.83;100548.31;5071713;28;20039;-64
2023/07/17 12:10:42;;;;;;;5.80;3.07;;;;;;;30.51;33.59;100543.81;5071834;28;20045;-64
2023/07/17 12:13:08;;;;;;;4.50;2.80;;;;;;;31.23;33.79;100531.63;5071951;28;20044;-65
2023/07/17 12:15:35;;;;;;;5.05;2.70;;;;;;;31.00;33.19;100534.25;5071812;28;20497;-64
2023/07/17 12:18:01;;;;;;;4.88;2.78;;;;;;;31.01;33.39;100537.81;5071963;28;20029;-65
2023/07/17 12:20:29;;;;;;;5.97;2.58;;;;;;;31.44;31.96;100541.16;5071486;28;20048;-64
2023/07/17 12:22:56;;;;;;;5.82;2.85;;;;;;;31.29;30.66;100533.19;5071873;28;20044;-64
2023/07/17 12:25:22;;;;;;;3.80;2.75;;;;;;;31.17;32.73;100539.19;5071826;28;20489;-64
2023/07/17 12:27:48;;;;;;;4.75;2.30;;;;;;;30.93;33.71;100530.25;5070665;28;20047;-64
2023/07/17 12:30:15;;;;;;;5.85;3.08;;;;;;;30.39;34.19;100534.44;5071603;28;20037;-64
2023/07/17 12:32:42;;;;;;;4.15;2.60;;;;;;;30.64;34.03;100528.50;5071732;28;20040;-65
2023/07/17 12:35:08;;;;;;;6.95;3.17;;;;;;;30.72;32.78;100532.56;5066252;28;20115;-64
2023/07/17 12:37:34;;;;;;;6.47;2.72;;;;;;;30.83;34.88;100533.19;5050449;28;20044;-64
2023/07/17 12:40:00;;;;;;;7.32;3.33;;;;;;;30.87;33.36;100523.22;5051494;28;20425;-64
2023/07/17 12:42:26;;;;;;;6.27;3.03;;;;;;;31.18;33.60;100510.53;5052444;28;20112;-63
2023/07/17 12:44:52;;;;;;;7.13;2.93;;;;;;;31.67;32.15;100509.03;5055782;28;20478;-64
2023/07/17 12:47:17;;;;;;;5.53;2.37;;;;;;;32.06;31.92;100515.91;5056913;28;20064;-63
2023/07/17 12:49:43;;;;;;;6.30;2.97;;;;;;;32.09;31.41;100523.56;5057911;28;20033;-64
2023/07/17 12:52:08;;;;;;;7.07;3.00;;;;;;;32.55;31.57;100523.31;5055522;28;20387;-62
2023/07/17 12:54:34;;;;;;;7.93;3.37;;;;;;;32.42;31.03;100515.94;5054337;28;20075;-63
2023/07/17 12:57:00;;;;;;;6.10;3.43;;;;;;;32.51;30.67;100524.25;5055431;28;20142;-63
2023/07/17 12:59:25;;;;;;;5.83;2.60;;;;;;;32.85;32.05;100521.72;5054748;28;20072;-64
2023/07/17 13:01:55;;;;;;;7.17;2.70;;;;;;;32.97;30.69;100512.91;5054998;28;20032;-60
2023/07/17 13:04:21;;;;;;;6.72;2.85;;;;;;;33.55;29.10;100522.09;5072103;28;20161;-63
2023/07/17 13:06:46;;;;;;;5.33;2.63;;;;;;;32.89;28.65;100511.72;5076162;28;20056;-63
2023/07/17 13:09:12;;;;;;;6.47;2.93;;;;;;;32.45;29.83;100506.22;5074186;28;20085;-62
2023/07/17 13:11:38;;;;;;;8.53;3.33;;;;;;;33.39;27.77;100499.66;5075299;28;20474;-63
2023/07/17 13:14:05;;;;;;;7.93;2.70;;;;;;;32.65;29.63;100516.72;5075283;28;20044;-65
2023/07/17 13:16:32;;;;;;;7.15;2.88;;;;;;;32.04;28.82;100520.94;5075131;28;20052;-64
2023/07/17 13:18:58;;;;;;;6.47;2.83;;;;;;;31.87;30.05;100518.81;5074641;28;20503;-65
2023/07/17 13:21:24;;;;;;;7.53;3.00;;;;;;;31.94;29.65;100508.19;5075137;28;20111;-65
2023/07/17 13:23:49;;;;;;;4.47;2.43;;;;;;;31.31;30.11;100518.03;5074954;28;20033;-65
2023/07/17 13:26:17;;;;;;;9.97;3.43;;;;;;;31.13;31.75;100516.13;5074708;28;20044;-66
2023/07/17 13:28:42;;;;;;;6.65;3.28;;;;;;;30.31;31.27;100522.16;5074476;28;20037;-65
2023/07/17 13:31:07;;;;;;;5.13;2.83;;;;;;;30.40;32.77;100509.41;5074686;28;20535;-65
2023/07/17 13:33:33;;;;;;;7.13;3.27;;;;;;;30.16;31.55;100504.00;5073421;28;20342;-65
2023/07/17 13:35:58;;;;;;;6.77;2.60;;;;;;;30.00;32.22;100499.81;5074644;28;20465;-65
2023/07/17 13:38:24;;;;;;;6.38;2.63;;;;;;;29.86;32.84;100501.63;5074504;28;20036;-65
2023/07/17 13:40:49;;;;;;;7.15;2.97;;;;;;;29.67;31.51;100512.63;5074715;28;20632;-66
2023/07/17 13:43:15;;;;;;;8.00;2.95;;;;;;;29.63;32.80;100504.16;5074645;28;20509;-65
2023/07/17 13:45:40;;;;;;;5.80;3.15;;;;;;;29.68;32.74;100508.75;5074371;28;20037;-65
2023/07/17 13:48:06;;;;;;;5.85;2.83;;;;;;;29.41;32.85;100504.66;5074355;28;20111;-65
2023/07/17 13:50:31;;;;;;;5.07;2.53;;;;;;;29.60;33.66;100499.22;5074276;28;20051;-65
2023/07/17 13:52:58;;;;;;;6.40;2.63;;;;;;;29.53;33.58;100503.44;5074225;28;20037;-64
2023/07/17 13:55:24;;;;;;;7.65;2.95;;;;;;;29.32;33.53;100503.66;5074347;28;20410;-64
2023/07/17 13:57:49;;;;;;;5.18;2.60;;;;;;;29.14;32.62;100513.44;5074449;28;20039;-64
2023/07/17 14:00:15;;;;;;;4.93;2.65;;;;;;;29.09;33.26;100491.59;5073959;28;20401;-64
2023/07/17 14:02:41;;;;;;;6.03;2.45;;;;;;;29.04;32.09;100499.03;5074146;28;20033;-65
2023/07/17 14:05:06;;;;;;;5.90;2.97;;;;;;;28.75;32.48;100471.59;5074684;28;20155;-64
2023/07/17 14:07:32;;;;;;;6.75;2.65;;;;;;;28.80;31.84;100505.25;5073984;28;20071;-65
2023/07/17 14:09:57;;;;;;;5.15;2.50;;;;;;;28.48;32.01;100488.56;5073856;28;20040;-65
2023/07/17 14:12:22;;;;;;;6.13;2.55;;;;;;;28.51;32.97;100496.22;5073931;28;20090;-63
2023/07/17 14:14:48;;;;;;;6.63;2.53;;;;;;;28.55;33.98;100497.25;5073966;28;20075;-64
2023/07/17 14:17:13;;;;;;;5.93;2.33;;;;;;;28.65;33.39;100498.00;5072435;28;20037;-64
2023/07/17 14:19:39;;;;;;;6.47;2.92;;;;;;;28.74;32.50;100498.19;5073499;28;20094;-64
2023/07/17 14:22:05;;;;;;;5.75;2.25;;;;;;;28.61;33.36;100488.72;5074087;28;20059;-63
2023/07/17 14:24:30;;;;;;;7.80;3.10;;;;;;;28.64;33.82;100492.81;5073894;28;20040;-64
2023/07/17 14:26:56;;;;;;;4.38;2.20;;;;;;;28.64;33.27;100495.56;5073725;28;20290;-64
2023/07/17 14:29:21;;;;;;;6.20;2.72;;;;;;;28.50;32.75;100494.59;5073469;28;20401;-64
2023/07/17 14:31:47;;;;;;;5.75;2.67;;;;;;;28.45;33.96;100491.88;5073555;28;20036;-63
2023/07/17 14:34:12;;;;;;;5.85;2.47;;;;;;;28.37;33.11;100485.91;5072565;28;20044;-63
2023/07/17 14:36:38;;;;;;;6.57;2.58;;;;;;;28.50;33.44;100486.38;5061807;28;20040;-64
2023/07/17 14:39:03;;;;;;;5.90;2.60;;;;;;;28.33;33.67;100476.63;5062026;28;20033;-65
2023/07/17 14:41:30;;;;;;;3.60;2.40;;;;;;;28.28;32.52;100478.53;5061437;28;20086;-64
2023/07/17 14:43:55;;;;;;;4.83;2.20;;;;;;;28.21;33.37;100478.88;5063189;28;20123;-65
2023/07/17 14:46:20;;;;;;;4.50;2.08;;;;;;;28.21;33.06;100481.59;5060293;28;20116;-65
2023/07/17 14:48:46;;;;;;;4.13;2.30;;;;;;;28.04;33.28;100483.94;5045541;28;20107;-65
2023/07/17 14:51:12;;;;;;;6.38;2.33;;;;;;;28.17;33.49;100468.75;5060791;28;20033;-65
2023/07/17 14:53:37;;;;;;;3.92;1.85;;;;;;;28.04;32.83;100479.28;5061604;28;20033;-64
2023/07/17 14:56:02;;;;;;;4.20;2.30;;;;;;;28.00;33.36;100469.97;5062788;28;20033;-64
2023/07/17 14:58:28;;;;;;;11.10;5.78;;;;;;;28.05;33.82;100480.09;5061950;28;20087;-64
2023/07/17 15:00:53;;;;;;;3.95;2.17;;;;;;;27.94;33.36;100475.75;5059434;28;20498;-64
2023/07/17 15:03:19;;;;;;;5.15;2.33;;;;;;;27.92;33.53;100473.31;5062616;28;20036;-65
2023/07/17 15:05:44;;;;;;;3.63;2.17;;;;;;;27.96;33.62;100474.38;5060522;28;20037;-65
2023/07/17 15:08:10;;;;;;;5.47;2.63;;;;;;;27.93;34.07;100472.22;5058690;28;20475;-65
2023/07/17 15:10:35;;;;;;;5.55;2.72;;;;;;;27.98;34.02;100465.91;5052585;28;20072;-65
2023/07/17 15:13:01;;;;;;;4.53;2.42;;;;;;;27.84;32.88;100469.25;5052914;28;20080;-64
2023/07/17 15:15:26;;;;;;;4.40;2.50;;;;;;;27.78;33.34;100478.59;5052856;28;20044;-63
2023/07/17 15:17:52;;;;;;;5.45;2.40;;;;;;;27.72;32.50;100476.16;5051533;28;20036;-65
2023/07/17 15:20:18;;;;;;;4.75;2.00;;;;;;;27.74;33.46;100480.25;5052565;28;20518;-64
2023/07/17 15:22:43;;;;;;;6.18;2.58;;;;;;;27.73;33.33;100475.88;5052733;28;20064;-63
2023/07/17 15:25:09;;;;;;;5.70;2.53;;;;;;;27.65;32.92;100468.25;5052611;28;20051;-64
2023/07/17 15:27:35;;;;;;;4.28;2.05;;;;;;;27.60;32.61;100476.47;5051452;28;20131;-64
2023/07/17 15:30:01;;;;;;;5.70;2.28;;;;;;;27.65;33.79;100470.97;5052381;28;20052;-65
2023/07/17 15:32:26;;;;;;;6.90;2.47;;;;;;;27.58;32.50;100473.19;5052449;28;20044;-64
2023/07/17 15:34:52;;;;;;;4.25;2.30;;;;;;;27.66;33.19;100474.53;5052556;28;20037;-65
2023/07/17 15:37:17;;;;;;;4.25;1.77;;;;;;;27.63;33.32;100480.53;5051207;28;20445;-64
2023/07/17 15:39:42;;;;;;;5.72;2.25;;;;;;;27.62;33.87;100470.72;5051966;28;20086;-65
2023/07/17 15:42:08;;;;;;;7.00;2.30;;;;;;;27.59;32.87;100472.91;5052279;28;20037;-64
2023/07/17 15:44:33;;;;;;;4.13;1.83;;;;;;;27.59;32.29;100470.19;5052131;28;20039;-64